createdAt,value
2023-04-15T00:00:26.281Z,9.50
2023-04-15T00:01:26.457Z,9.60
2023-04-15T00:02:26.437Z,10.80
2023-04-15T00:03:26.492Z,10.70
2023-04-15T00:04:26.528Z,10.40
2023-04-15T00:05:25.376Z,10.60
2023-04-15T00:06:25.351Z,8.90
2023-04-15T00:07:26.350Z,13.00
2023-04-15T00:08:25.387Z,8.30
2023-04-15T00:09:25.329Z,9.50
2023-04-15T00:10:26.064Z,11.30
2023-04-15T00:11:26.246Z,11.00
2023-04-15T00:12:26.131Z,11.90
2023-04-15T00:13:26.031Z,10.80
2023-04-15T00:14:25.241Z,9.00
2023-04-15T00:15:25.322Z,7.90
2023-04-15T00:16:25.362Z,12.30
2023-04-15T00:17:25.268Z,11.00
2023-04-15T00:18:25.221Z,12.00
2023-04-15T00:19:25.183Z,11.40
2023-04-15T00:20:26.178Z,14.60
2023-04-15T00:21:26.035Z,12.50
2023-04-15T00:22:25.140Z,10.70
2023-04-15T00:23:25.127Z,8.40
2023-04-15T00:24:26.061Z,12.30
2023-04-15T00:25:25.910Z,14.40
2023-04-15T00:26:25.086Z,10.60
2023-04-15T00:27:25.976Z,13.50
2023-04-15T00:28:25.273Z,12.50
2023-04-15T00:29:26.032Z,10.70
2023-04-15T00:30:25.216Z,11.60
2023-04-15T00:31:26.027Z,13.00
2023-04-15T00:32:25.776Z,18.70
2023-04-15T00:33:25.228Z,15.30
2023-04-15T00:34:25.200Z,17.60
2023-04-15T00:35:24.948Z,16.20
2023-04-15T00:36:24.925Z,19.30
2023-04-15T00:37:25.200Z,20.60
2023-04-15T00:38:25.264Z,12.80
2023-04-15T00:39:25.223Z,13.50
2023-04-15T00:40:25.233Z,12.70
2023-04-15T00:41:25.272Z,14.30
2023-04-15T00:42:25.270Z,10.90
2023-04-15T00:43:25.202Z,17.90
2023-04-15T00:44:25.381Z,16.80
2023-04-15T00:45:25.273Z,15.20
2023-04-15T00:46:24.910Z,16.10
2023-04-15T00:47:25.554Z,16.10
2023-04-15T00:48:25.751Z,19.20
2023-04-15T00:49:25.230Z,16.90
2023-04-15T00:50:24.792Z,17.10
2023-04-15T00:51:24.738Z,15.50
2023-04-15T00:52:24.851Z,14.30
2023-04-15T00:53:24.894Z,18.80
2023-04-15T00:54:25.118Z,15.00
2023-04-15T00:55:25.188Z,14.50
2023-04-15T00:56:24.720Z,17.00
2023-04-15T00:57:24.654Z,19.50
2023-04-15T00:58:24.621Z,17.00
2023-04-15T00:59:24.661Z,12.90
2023-04-15T01:00:24.778Z,23.10
2023-04-15T01:01:24.604Z,23.60
2023-04-15T01:02:24.719Z,11.70
2023-04-15T01:03:25.449Z,10.90
2023-04-15T01:04:24.674Z,15.30
2023-04-15T01:05:25.410Z,13.70
2023-04-15T01:06:25.318Z,14.10
2023-04-15T01:07:25.508Z,19.10
2023-04-15T01:08:25.371Z,14.70
2023-04-15T01:09:25.359Z,11.80
2023-04-15T01:10:25.466Z,13.70
2023-04-15T01:11:24.461Z,10.80
2023-04-15T01:12:24.574Z,14.10
2023-04-15T01:13:25.402Z,13.00
2023-04-15T01:14:25.322Z,9.70
2023-04-15T01:15:24.570Z,14.40
2023-04-15T01:16:24.689Z,20.00
2023-04-15T01:17:24.419Z,14.30
2023-04-15T01:18:25.201Z,13.50
2023-04-15T01:19:25.368Z,13.70
2023-04-15T01:20:24.330Z,13.60
2023-04-15T01:21:25.140Z,12.80
2023-04-15T01:22:25.055Z,18.40
2023-04-15T01:23:25.207Z,13.00
2023-04-15T01:24:25.105Z,13.30
2023-04-15T01:25:25.276Z,14.30
2023-04-15T01:26:24.288Z,12.10
2023-04-15T01:27:25.076Z,16.70
2023-04-15T01:28:24.201Z,13.00
2023-04-15T01:29:24.210Z,13.20
2023-04-15T01:30:24.257Z,15.00
2023-04-15T01:31:25.003Z,12.60
2023-04-15T01:32:25.126Z,15.90
2023-04-15T01:33:25.068Z,16.00
2023-04-15T01:34:24.174Z,17.60
2023-04-15T01:35:24.187Z,13.80
2023-04-15T01:36:25.017Z,13.60
2023-04-15T01:37:24.135Z,14.50
2023-04-15T01:38:25.056Z,17.70
2023-04-15T01:39:24.451Z,13.70
2023-04-15T01:40:25.038Z,12.20
2023-04-15T01:41:24.172Z,15.10
2023-04-15T01:42:25.014Z,13.20
2023-04-15T01:43:24.001Z,18.80
2023-04-15T01:44:24.702Z,19.50
2023-04-15T01:45:24.301Z,15.60
2023-04-15T01:46:24.707Z,19.30
2023-04-15T01:47:24.677Z,14.40
2023-04-15T01:48:23.983Z,18.20
2023-04-15T01:49:23.932Z,12.70
2023-04-15T01:50:24.890Z,19.30
2023-04-15T01:51:24.861Z,16.40
2023-04-15T01:52:24.724Z,14.00
2023-04-15T01:53:24.084Z,14.80
2023-04-15T01:54:23.870Z,14.00
2023-04-15T01:55:24.696Z,15.50
2023-04-15T01:56:24.601Z,15.00
2023-04-15T01:57:23.804Z,17.90
2023-04-15T01:58:24.433Z,14.70
2023-04-15T01:59:24.527Z,17.10
2023-04-15T02:00:24.650Z,15.50
2023-04-15T02:01:24.594Z,19.00
2023-04-15T02:02:24.026Z,17.20
2023-04-15T02:03:23.825Z,15.60
2023-04-15T02:04:25.660Z,16.00
2023-04-15T02:05:24.548Z,13.30
2023-04-15T02:06:26.255Z,20.80
2023-04-15T02:07:24.600Z,20.10
2023-04-15T02:08:24.519Z,17.30
2023-04-15T02:09:23.664Z,16.70
2023-04-15T02:10:23.720Z,19.40
2023-04-15T02:11:23.622Z,15.40
2023-04-15T02:12:24.693Z,14.70
2023-04-15T02:13:24.542Z,24.10
2023-04-15T02:14:23.648Z,24.80
2023-04-15T02:15:24.649Z,19.10
2023-04-15T02:16:24.630Z,21.10
2023-04-15T02:17:24.426Z,24.60
2023-04-15T02:18:24.316Z,24.60
2023-04-15T02:19:23.527Z,21.30
2023-04-15T02:20:23.645Z,18.70
2023-04-15T02:21:23.473Z,18.40
2023-04-15T02:22:23.465Z,26.10
2023-04-15T02:23:23.548Z,25.40
2023-04-15T02:24:23.454Z,22.00
2023-04-15T02:25:23.433Z,21.50
2023-04-15T02:26:23.565Z,26.40
2023-04-15T02:27:23.381Z,21.20
2023-04-15T02:28:24.344Z,20.70
2023-04-15T02:29:24.247Z,20.20
2023-04-15T02:30:23.372Z,19.80
2023-04-15T02:31:24.360Z,23.90
2023-04-15T02:32:23.389Z,25.60
2023-04-15T02:33:24.130Z,25.10
2023-04-15T02:34:23.332Z,26.90
2023-04-15T02:35:23.335Z,25.20
2023-04-15T02:36:23.293Z,20.50
2023-04-15T02:37:23.310Z,29.80
2023-04-15T02:38:23.234Z,32.20
2023-04-15T02:39:24.057Z,27.40
2023-04-15T02:40:24.010Z,26.70
2023-04-15T02:41:24.124Z,26.40
2023-04-15T02:42:23.275Z,30.40
2023-04-15T02:43:23.244Z,35.00
2023-04-15T02:44:23.357Z,35.50
2023-04-15T02:45:23.186Z,31.10
2023-04-15T02:46:23.324Z,30.60
2023-04-15T02:47:24.110Z,37.40
2023-04-15T02:48:23.100Z,24.80
2023-04-15T02:49:23.097Z,31.00
2023-04-15T02:50:24.029Z,32.10
2023-04-15T02:51:23.926Z,35.80
2023-04-15T02:52:23.862Z,27.80
2023-04-15T02:53:24.002Z,38.40
2023-04-15T02:54:23.907Z,33.70
2023-04-15T02:55:23.001Z,32.90
2023-04-15T02:56:23.129Z,37.10
2023-04-15T02:57:23.914Z,32.30
2023-04-15T02:58:23.008Z,36.50
2023-04-15T02:59:23.927Z,42.90
2023-04-15T03:00:23.862Z,36.50
2023-04-15T03:01:23.767Z,41.00
2023-04-15T03:02:23.974Z,31.90
2023-04-15T03:03:23.907Z,30.90
2023-04-15T03:04:22.936Z,35.10
2023-04-15T03:05:23.345Z,33.30
2023-04-15T03:06:23.830Z,39.90
2023-04-15T03:07:22.904Z,32.80
2023-04-15T03:08:23.836Z,33.20
2023-04-15T03:09:23.772Z,40.10
2023-04-15T03:10:23.641Z,53.70
2023-04-15T03:11:23.261Z,38.80
2023-04-15T03:12:22.756Z,35.70
2023-04-15T03:13:23.292Z,40.90
2023-04-15T03:14:23.298Z,41.40
2023-04-15T03:15:23.682Z,34.80
2023-04-15T03:16:23.581Z,37.90
2023-04-15T03:17:22.751Z,39.20
2023-04-15T03:18:23.642Z,35.70
2023-04-15T03:19:23.548Z,53.30
2023-04-15T03:20:23.525Z,47.70
2023-04-15T03:21:23.628Z,54.90
2023-04-15T03:22:23.521Z,57.60
2023-04-15T03:23:22.645Z,55.20
2023-04-15T03:24:23.055Z,42.40
2023-04-15T03:25:23.517Z,42.70
2023-04-15T03:26:23.383Z,49.20
2023-04-15T03:27:22.583Z,45.00
2023-04-15T03:28:22.539Z,43.30
2023-04-15T03:29:22.573Z,63.20
2023-04-15T03:30:23.254Z,54.30
2023-04-15T03:31:22.563Z,35.60
2023-04-15T03:32:23.357Z,49.90
2023-04-15T03:33:23.389Z,42.20
2023-04-15T03:34:23.387Z,47.00
2023-04-15T03:35:23.350Z,41.20
2023-04-15T03:36:23.204Z,38.60
2023-04-15T03:37:23.331Z,66.60
2023-04-15T03:38:23.286Z,57.90
2023-04-15T03:39:22.654Z,44.80
2023-04-15T03:40:22.416Z,47.90
2023-04-15T03:41:22.413Z,66.80
2023-04-15T03:42:22.450Z,55.10
2023-04-15T03:43:22.431Z,44.30
2023-04-15T03:44:22.354Z,60.70
2023-04-15T03:45:22.353Z,57.10
2023-04-15T03:46:22.331Z,45.50
2023-04-15T03:47:22.475Z,46.60
2023-04-15T03:48:23.120Z,53.30
2023-04-15T03:49:23.252Z,49.90
2023-04-15T03:50:22.531Z,73.20
2023-04-15T03:51:22.315Z,61.20
2023-04-15T03:52:23.262Z,61.90
2023-04-15T03:53:22.184Z,52.40
2023-04-15T03:54:22.447Z,68.80
2023-04-15T03:55:22.179Z,69.60
2023-04-15T03:56:22.231Z,59.90
2023-04-15T03:57:22.169Z,52.70
2023-04-15T03:58:22.142Z,47.00
2023-04-15T03:59:22.112Z,51.40
2023-04-15T04:00:22.140Z,51.80
2023-04-15T04:01:22.332Z,46.60
2023-04-15T04:02:22.205Z,52.10
2023-04-15T04:03:22.688Z,47.40
2023-04-15T04:04:22.899Z,39.70
2023-04-15T04:05:22.027Z,40.20
2023-04-15T04:06:22.112Z,62.80
2023-04-15T04:07:22.220Z,65.20
2023-04-15T04:08:22.118Z,45.00
2023-04-15T04:09:22.388Z,50.60
2023-04-15T04:10:21.992Z,40.40
2023-04-15T04:11:21.990Z,44.20
2023-04-15T04:12:22.094Z,56.50
2023-04-15T04:13:22.364Z,56.80
2023-04-15T04:14:22.339Z,49.80
2023-04-15T04:15:22.464Z,60.80
2023-04-15T04:16:21.992Z,40.40
2023-04-15T04:17:21.978Z,41.50
2023-04-15T04:18:22.044Z,49.80
2023-04-15T04:19:21.910Z,57.30
2023-04-15T04:20:21.888Z,74.00
2023-04-15T04:21:22.118Z,64.80
2023-04-15T04:22:21.897Z,77.80
2023-04-15T04:23:21.802Z,46.50
2023-04-15T04:24:21.860Z,62.80
2023-04-15T04:25:21.870Z,56.20
2023-04-15T04:26:21.862Z,40.90
2023-04-15T04:27:21.713Z,65.20
2023-04-15T04:28:21.763Z,62.70
2023-04-15T04:29:21.776Z,57.90
2023-04-15T04:30:21.684Z,61.20
2023-04-15T04:31:21.721Z,59.30
2023-04-15T04:32:21.678Z,61.80
2023-04-15T04:33:21.702Z,61.60
2023-04-15T04:34:21.625Z,48.50
2023-04-15T04:35:22.398Z,53.40
2023-04-15T04:36:21.616Z,58.10
2023-04-15T04:37:21.745Z,76.90
2023-04-15T04:38:21.769Z,63.50
2023-04-15T04:39:21.712Z,49.60
2023-04-15T04:40:21.519Z,56.20
2023-04-15T04:41:21.751Z,59.70
2023-04-15T04:42:21.566Z,62.30
2023-04-15T04:43:21.690Z,56.80
2023-04-15T04:44:21.771Z,62.20
2023-04-15T04:45:21.745Z,59.50
2023-04-15T04:46:21.521Z,71.30
2023-04-15T04:47:21.514Z,67.70
2023-04-15T04:48:22.423Z,93.30
2023-04-15T04:49:22.343Z,73.40
2023-04-15T04:50:21.465Z,72.00
2023-04-15T04:51:22.459Z,90.40
2023-04-15T04:52:22.309Z,72.70
2023-04-15T04:53:22.241Z,70.40
2023-04-15T04:54:22.125Z,95.60
2023-04-15T04:55:22.355Z,101.70
2023-04-15T04:56:21.431Z,84.30
2023-04-15T04:57:21.804Z,64.50
2023-04-15T04:58:21.410Z,80.60
2023-04-15T04:59:22.210Z,68.40
2023-04-15T05:00:22.049Z,85.60
2023-04-15T05:01:22.335Z,89.20
2023-04-15T05:02:22.218Z,75.70
2023-04-15T05:03:21.414Z,81.70
2023-04-15T05:04:21.249Z,68.20
2023-04-15T05:05:21.272Z,127.20
2023-04-15T05:06:21.245Z,79.10
2023-04-15T05:07:21.206Z,137.00
2023-04-15T05:08:21.183Z,169.70
2023-04-15T05:09:21.214Z,101.60
2023-04-15T05:10:21.122Z,124.10
2023-04-15T05:11:22.024Z,93.20
2023-04-15T05:12:21.143Z,89.80
2023-04-15T05:13:21.258Z,99.90
2023-04-15T05:14:23.331Z,85.60
2023-04-15T05:15:21.080Z,90.10
2023-04-15T05:16:22.090Z,112.30
2023-04-15T05:17:21.103Z,115.80
2023-04-15T05:18:21.875Z,114.40
2023-04-15T05:19:21.003Z,155.60
2023-04-15T05:20:29.979Z,195.70
2023-04-15T05:21:21.824Z,110.30
2023-04-15T05:22:20.973Z,161.80
2023-04-15T05:23:21.082Z,140.50
2023-04-15T05:24:21.471Z,152.90
2023-04-15T05:25:20.983Z,142.80
2023-04-15T05:26:23.620Z,154.90
2023-04-15T05:27:21.149Z,117.10
2023-04-15T05:28:22.363Z,140.70
2023-04-15T05:29:20.859Z,129.30
2023-04-15T05:30:21.064Z,132.20
2023-04-15T05:31:21.549Z,114.10
2023-04-15T05:32:21.697Z,113.10
2023-04-15T05:33:22.214Z,120.80
2023-04-15T05:34:21.056Z,145.90
2023-04-15T05:35:20.776Z,101.60
2023-04-15T05:36:20.895Z,134.20
2023-04-15T05:37:21.226Z,133.10
2023-04-15T05:38:21.156Z,103.70
2023-04-15T05:39:21.282Z,91.90
2023-04-15T05:40:20.808Z,83.40
2023-04-15T05:41:20.721Z,147.20
2023-04-15T05:42:21.154Z,98.10
2023-04-15T05:43:21.055Z,133.30
2023-04-15T05:44:21.744Z,107.50
2023-04-15T05:45:20.825Z,163.10
2023-04-15T05:46:21.595Z,129.10
2023-04-15T05:47:20.841Z,107.60
2023-04-15T05:48:48.974Z,136.60
2023-04-15T05:49:21.192Z,135.70
2023-04-15T05:50:20.684Z,129.00
2023-04-15T05:51:20.664Z,117.70
2023-04-15T05:52:21.550Z,119.20
2023-04-15T05:53:21.061Z,136.00
2023-04-15T05:54:22.858Z,148.80
2023-04-15T05:55:21.351Z,107.70
2023-04-15T05:56:20.731Z,95.60
2023-04-15T05:57:20.732Z,113.30
2023-04-15T05:58:20.570Z,133.60
2023-04-15T05:59:20.666Z,109.50
2023-04-15T06:00:21.047Z,128.20
2023-04-15T06:01:21.508Z,89.00
2023-04-15T06:02:20.700Z,163.30
2023-04-15T06:03:21.560Z,114.60
2023-04-15T06:04:20.513Z,115.40
2023-04-15T06:05:20.606Z,106.90
2023-04-15T06:06:20.989Z,110.00
2023-04-15T06:07:20.435Z,140.90
2023-04-15T06:08:20.725Z,152.80
2023-04-15T06:09:21.087Z,129.90
2023-04-15T06:10:20.452Z,100.50
2023-04-15T06:11:20.396Z,118.50
2023-04-15T06:12:20.586Z,111.40
2023-04-15T06:13:20.696Z,95.90
2023-04-15T06:14:21.152Z,146.50
2023-04-15T06:15:21.728Z,142.60
2023-04-15T06:16:20.371Z,109.90
2023-04-15T06:17:20.690Z,92.60
2023-04-15T06:18:20.294Z,130.20
2023-04-15T06:19:20.437Z,170.40
2023-04-15T06:20:20.388Z,105.90
2023-04-15T06:21:21.929Z,147.30
2023-04-15T06:22:21.102Z,127.20
2023-04-15T06:23:20.992Z,104.50
2023-04-15T06:24:20.138Z,107.70
2023-04-15T06:25:21.123Z,127.60
2023-04-15T06:26:20.966Z,157.90
2023-04-15T06:27:20.096Z,223.90
2023-04-15T06:28:21.030Z,156.20
2023-04-15T06:29:20.045Z,133.30
2023-04-15T06:30:20.612Z,171.60
2023-04-15T06:31:21.011Z,109.40
2023-04-15T06:32:20.887Z,100.50
2023-04-15T06:33:19.993Z,137.10
2023-04-15T06:34:21.028Z,156.20
2023-04-15T06:35:19.983Z,95.00
2023-04-15T06:36:19.940Z,101.80
2023-04-15T06:37:19.908Z,132.70
2023-04-15T06:38:19.915Z,133.80
2023-04-15T06:39:20.754Z,128.30
2023-04-15T06:40:20.882Z,102.60
2023-04-15T06:41:19.916Z,122.20
2023-04-15T06:42:19.922Z,165.00
2023-04-15T06:43:20.328Z,176.90
2023-04-15T06:44:20.754Z,147.50
2023-04-15T06:45:20.661Z,190.40
2023-04-15T06:46:20.514Z,193.80
2023-04-15T06:47:20.743Z,189.70
2023-04-15T06:48:19.781Z,205.00
2023-04-15T06:49:19.784Z,136.20
2023-04-15T06:50:20.275Z,141.30
2023-04-15T06:51:19.851Z,154.40
2023-04-15T06:52:20.038Z,138.00
2023-04-15T06:53:20.123Z,99.30
2023-04-15T06:54:20.565Z,92.30
2023-04-15T06:55:19.725Z,165.60
2023-04-15T06:56:19.710Z,126.40
2023-04-15T06:57:20.529Z,100.70
2023-04-15T06:58:19.725Z,111.10
2023-04-15T06:59:20.334Z,97.00
2023-04-15T07:00:20.274Z,140.00
2023-04-15T07:01:20.327Z,147.20
2023-04-15T07:02:19.664Z,158.70
2023-04-15T07:03:19.700Z,121.40
2023-04-15T07:04:19.966Z,101.90
2023-04-15T07:05:19.531Z,133.30
2023-04-15T07:06:20.466Z,110.90
2023-04-15T07:07:19.508Z,98.20
2023-04-15T07:08:19.521Z,97.70
2023-04-15T07:09:19.510Z,143.30
2023-04-15T07:10:20.274Z,127.40
2023-04-15T07:11:19.464Z,114.00
2023-04-15T07:12:20.367Z,101.90
2023-04-15T07:13:19.461Z,122.60
2023-04-15T07:14:19.460Z,155.10
2023-04-15T07:15:19.524Z,220.80
2023-04-15T07:16:19.491Z,171.70
2023-04-15T07:17:19.438Z,171.00
2023-04-15T07:18:20.311Z,114.20
2023-04-15T07:19:19.383Z,150.90
2023-04-15T07:20:19.433Z,110.30
2023-04-15T07:21:19.351Z,120.70
2023-04-15T07:22:19.392Z,103.60
2023-04-15T07:23:19.687Z,87.70
2023-04-15T07:24:19.556Z,134.30
2023-04-15T07:25:19.301Z,121.00
2023-04-15T07:26:19.324Z,108.10
2023-04-15T07:27:19.831Z,122.10
2023-04-15T07:28:19.268Z,142.80
2023-04-15T07:29:19.272Z,141.80
2023-04-15T07:30:19.600Z,165.20
2023-04-15T07:31:20.116Z,138.90
2023-04-15T07:32:19.700Z,100.20
2023-04-15T07:33:19.341Z,109.50
2023-04-15T07:34:19.497Z,126.30
2023-04-15T07:35:19.421Z,112.40
2023-04-15T07:36:20.031Z,136.70
2023-04-15T07:37:19.134Z,120.90
2023-04-15T07:38:19.116Z,147.50
2023-04-15T07:39:19.829Z,98.40
2023-04-15T07:40:19.064Z,123.00
2023-04-15T07:41:19.065Z,161.90
2023-04-15T07:42:19.878Z,133.50
2023-04-15T07:43:19.048Z,147.80
2023-04-15T07:44:19.050Z,92.30
2023-04-15T07:45:19.016Z,115.70
2023-04-15T07:46:19.068Z,84.60
2023-04-15T07:47:19.034Z,106.20
2023-04-15T07:48:19.023Z,137.90
2023-04-15T07:49:19.132Z,120.30
2023-04-15T07:50:18.931Z,86.60
2023-04-15T07:51:19.098Z,97.70
2023-04-15T07:52:18.936Z,156.20
2023-04-15T07:53:18.914Z,134.20
2023-04-15T07:54:18.863Z,114.20
2023-04-15T07:55:19.478Z,79.60
2023-04-15T07:56:18.873Z,91.50
2023-04-15T07:57:18.844Z,96.20
2023-04-15T07:58:18.866Z,69.00
2023-04-15T07:59:18.879Z,88.40
2023-04-15T08:00:18.878Z,121.90
2023-04-15T08:01:18.811Z,131.70
2023-04-15T08:02:18.897Z,116.90
2023-04-15T08:03:18.919Z,93.70
2023-04-15T08:04:19.007Z,97.80
2023-04-15T08:05:19.228Z,89.90
2023-04-15T08:06:18.891Z,95.10
2023-04-15T08:07:18.777Z,123.30
2023-04-15T08:08:18.715Z,102.50
2023-04-15T08:09:18.699Z,111.00
2023-04-15T08:10:18.649Z,70.70
2023-04-15T08:11:18.717Z,84.80
2023-04-15T08:12:18.625Z,91.70
2023-04-15T08:13:18.612Z,81.30
2023-04-15T08:14:18.755Z,81.20
2023-04-15T08:15:18.881Z,79.80
2023-04-15T08:16:18.707Z,91.20
2023-04-15T08:17:18.843Z,97.40
2023-04-15T08:18:18.650Z,103.00
2023-04-15T08:19:19.179Z,70.30
2023-04-15T08:20:18.506Z,78.70
2023-04-15T08:21:18.858Z,65.10
2023-04-15T08:22:19.614Z,100.20
2023-04-15T08:23:18.941Z,118.80
2023-04-15T08:24:19.345Z,83.00
2023-04-15T08:25:18.588Z,75.60
2023-04-15T08:26:18.850Z,82.30
2023-04-15T08:27:18.468Z,73.90
2023-04-15T08:28:18.491Z,77.10
2023-04-15T08:29:19.184Z,70.00
2023-04-15T08:30:19.327Z,93.10
2023-04-15T08:31:19.222Z,69.40
2023-04-15T08:32:19.147Z,71.00
2023-04-15T08:33:18.321Z,84.40
2023-04-15T08:34:18.356Z,84.50
2023-04-15T08:35:19.060Z,123.00
2023-04-15T08:36:18.258Z,101.90
2023-04-15T08:37:18.530Z,77.40
2023-04-15T08:38:18.334Z,84.50
2023-04-15T08:39:18.280Z,68.60
2023-04-15T08:40:19.121Z,63.70
2023-04-15T08:41:18.551Z,64.10
2023-04-15T08:42:18.199Z,81.40
2023-04-15T08:43:18.884Z,74.50
2023-04-15T08:44:18.508Z,88.00
2023-04-15T08:45:19.135Z,58.60
2023-04-15T08:46:18.221Z,82.10
2023-04-15T08:47:18.174Z,93.80
2023-04-15T08:48:19.095Z,74.80
2023-04-15T08:49:18.518Z,68.20
2023-04-15T08:50:18.164Z,58.60
2023-04-15T08:51:18.183Z,70.60
2023-04-15T08:52:18.173Z,67.10
2023-04-15T08:53:18.871Z,89.40
2023-04-15T08:54:18.069Z,77.50
2023-04-15T08:55:18.949Z,78.70
2023-04-15T08:56:18.892Z,83.80
2023-04-15T08:57:18.219Z,67.70
2023-04-15T08:58:17.992Z,72.90
2023-04-15T08:59:18.295Z,59.30
2023-04-15T09:00:18.739Z,53.40
2023-04-15T09:01:18.924Z,59.70
2023-04-15T09:02:18.993Z,56.30
2023-04-15T09:03:18.138Z,66.60
2023-04-15T09:04:18.896Z,63.80
2023-04-15T09:05:17.989Z,55.00
2023-04-15T09:06:17.950Z,57.70
2023-04-15T09:07:17.883Z,65.50
2023-04-15T09:08:17.908Z,65.10
2023-04-15T09:09:17.879Z,49.70
2023-04-15T09:10:18.247Z,51.90
2023-04-15T09:11:19.432Z,56.00
2023-04-15T09:12:18.594Z,50.30
2023-04-15T09:13:18.037Z,49.50
2023-04-15T09:14:18.687Z,74.50
2023-04-15T09:15:17.896Z,59.80
2023-04-15T09:16:17.977Z,57.90
2023-04-15T09:17:17.759Z,50.00
2023-04-15T09:18:17.941Z,54.00
2023-04-15T09:19:17.714Z,49.60
2023-04-15T09:20:17.870Z,64.40
2023-04-15T09:21:18.534Z,49.10
2023-04-15T09:22:17.937Z,61.10
2023-04-15T09:23:17.620Z,72.90
2023-04-15T09:24:17.890Z,48.40
2023-04-15T09:25:17.932Z,46.90
2023-04-15T09:26:17.680Z,38.70
2023-04-15T09:27:18.270Z,41.50
2023-04-15T09:28:17.661Z,44.90
2023-04-15T09:29:17.611Z,42.50
2023-04-15T09:30:17.806Z,54.60
2023-04-15T09:31:17.569Z,51.50
2023-04-15T09:32:17.576Z,44.50
2023-04-15T09:33:17.675Z,51.70
2023-04-15T09:34:17.534Z,40.20
2023-04-15T09:35:17.488Z,38.90
2023-04-15T09:36:17.487Z,33.40
2023-04-15T09:37:31.507Z,36.30
2023-04-15T09:38:18.480Z,40.70
2023-04-15T09:39:18.342Z,33.80
2023-04-15T09:40:17.594Z,30.90
2023-04-15T09:41:17.563Z,33.40
2023-04-15T09:42:17.356Z,37.30
2023-04-15T09:43:17.460Z,35.00
2023-04-15T09:44:17.460Z,35.50
2023-04-15T09:45:17.404Z,31.50
2023-04-15T09:46:18.196Z,36.10
2023-04-15T09:47:17.382Z,36.70
2023-04-15T09:48:17.411Z,33.80
2023-04-15T09:49:17.286Z,33.40
2023-04-15T09:50:17.208Z,31.50
2023-04-15T09:51:17.617Z,31.30
2023-04-15T09:52:17.415Z,29.30
2023-04-15T09:53:17.237Z,28.20
2023-04-15T09:54:17.202Z,30.20
2023-04-15T09:55:17.224Z,28.70
2023-04-15T09:56:17.202Z,30.40
2023-04-15T09:57:17.146Z,28.20
2023-04-15T09:58:17.170Z,29.10
2023-04-15T09:59:17.339Z,27.30
2023-04-15T10:00:17.085Z,32.20
2023-04-15T10:01:17.165Z,28.00
2023-04-15T10:02:17.138Z,28.50
2023-04-15T10:03:17.188Z,28.90
2023-04-15T10:04:17.231Z,25.20
2023-04-15T10:05:17.078Z,27.00
2023-04-15T10:06:17.191Z,25.90
2023-04-15T10:07:17.098Z,27.20
2023-04-15T10:08:17.856Z,27.90
2023-04-15T10:09:17.408Z,28.20
2023-04-15T10:10:17.084Z,29.10
2023-04-15T10:11:17.027Z,27.70
2023-04-15T10:12:17.004Z,27.40
2023-04-15T10:13:16.926Z,26.60
2023-04-15T10:14:16.952Z,26.50
2023-04-15T10:15:16.880Z,26.60
2023-04-15T10:16:17.332Z,25.40
2023-04-15T10:17:17.045Z,25.90
2023-04-15T10:18:17.136Z,24.70
2023-04-15T10:19:16.809Z,27.30
2023-04-15T10:20:16.909Z,25.20
2023-04-15T10:21:16.934Z,24.70
2023-04-15T10:22:16.807Z,23.20
2023-04-15T10:23:16.937Z,25.50
2023-04-15T10:24:18.098Z,24.30
2023-04-15T10:25:16.828Z,25.40
2023-04-15T10:26:16.804Z,24.00
2023-04-15T10:27:16.751Z,22.40
2023-04-15T10:28:17.502Z,23.00
2023-04-15T10:29:16.691Z,22.50
2023-04-15T10:30:16.994Z,22.90
2023-04-15T10:31:16.938Z,22.50
2023-04-15T10:32:17.652Z,24.10
2023-04-15T10:33:16.770Z,21.20
2023-04-15T10:34:17.148Z,21.50
2023-04-15T10:35:16.686Z,20.00
2023-04-15T10:36:16.677Z,22.70
2023-04-15T10:37:17.156Z,21.80
2023-04-15T10:38:17.654Z,22.70
2023-04-15T10:39:16.670Z,21.20
2023-04-15T10:40:17.685Z,21.50
2023-04-15T10:41:18.036Z,21.40
2023-04-15T10:42:16.781Z,21.90
2023-04-15T10:43:17.925Z,22.20
2023-04-15T10:44:18.675Z,22.80
2023-04-15T10:45:16.533Z,21.00
2023-04-15T10:46:16.938Z,20.50
2023-04-15T10:47:16.431Z,19.20
2023-04-15T10:48:16.545Z,19.60
2023-04-15T10:49:16.967Z,20.30
2023-04-15T10:50:16.656Z,20.70
2023-04-15T10:51:16.719Z,21.40
2023-04-15T10:52:16.436Z,21.70
2023-04-15T10:53:16.497Z,21.00
2023-04-15T10:54:16.719Z,20.40
2023-04-15T10:55:16.612Z,21.20
2023-04-15T10:56:17.267Z,22.30
2023-04-15T10:57:17.107Z,21.80
2023-04-15T10:58:19.020Z,20.70
2023-04-15T10:59:16.491Z,21.00
2023-04-15T11:00:16.924Z,21.00
2023-04-15T11:01:16.240Z,19.70
2023-04-15T11:02:19.656Z,21.40
2023-04-15T11:03:16.912Z,21.10
2023-04-15T11:04:17.557Z,22.00
2023-04-15T11:05:16.346Z,20.00
2023-04-15T11:06:16.244Z,21.60
2023-04-15T11:07:16.339Z,21.00
2023-04-15T11:08:16.662Z,21.90
2023-04-15T11:09:16.597Z,20.30
2023-04-15T11:10:16.370Z,19.60
2023-04-15T11:11:16.162Z,19.60
2023-04-15T11:12:25.991Z,19.80
2023-04-15T11:13:17.487Z,18.70
2023-04-15T11:14:17.349Z,19.40
2023-04-15T11:15:16.047Z,18.40
2023-04-15T11:16:16.581Z,19.00
2023-04-15T11:17:16.850Z,18.80
2023-04-15T11:18:16.064Z,18.80
2023-04-15T11:19:48.772Z,19.10
2023-04-15T11:20:17.039Z,18.50
2023-04-15T11:21:16.052Z,17.70
2023-04-15T11:22:15.943Z,17.50
2023-04-15T11:23:16.209Z,17.40
2023-04-15T11:24:15.933Z,17.70
2023-04-15T11:25:16.235Z,17.60
2023-04-15T11:26:17.340Z,18.20
2023-04-15T11:27:15.849Z,17.70
2023-04-15T11:28:16.400Z,17.80
2023-04-15T11:29:15.926Z,17.60
2023-04-15T11:30:25.250Z,18.20
2023-04-15T11:31:15.904Z,17.80
2023-04-15T11:32:16.183Z,16.90
2023-04-15T11:33:16.077Z,18.30
2023-04-15T11:34:18.581Z,18.10
2023-04-15T11:35:17.597Z,17.10
2023-04-15T11:36:15.767Z,17.50
2023-04-15T11:38:27.631Z,17.90
2023-04-15T11:39:29.740Z,17.40
2023-04-15T11:40:27.934Z,17.80
2023-04-15T11:41:27.302Z,17.60
2023-04-15T11:42:36.210Z,19.10
2023-04-15T11:43:28.882Z,18.00
2023-04-15T11:44:27.565Z,17.40
2023-04-15T11:45:27.974Z,17.60
2023-04-15T11:46:27.464Z,17.70
2023-04-15T11:47:27.703Z,16.20
2023-04-15T11:48:27.941Z,17.70
2023-04-15T11:49:28.044Z,18.10
2023-04-15T11:50:27.512Z,18.00
2023-04-15T11:51:27.122Z,18.30
2023-04-15T11:52:27.119Z,17.00
2023-04-15T11:53:27.060Z,16.90
2023-04-15T11:54:27.069Z,17.60
2023-04-15T11:55:28.309Z,17.30
2023-04-15T11:56:27.022Z,17.40
2023-04-15T11:57:27.864Z,18.50
2023-04-15T11:58:27.475Z,18.00
2023-04-15T11:59:38.940Z,17.80
2023-04-15T12:00:28.708Z,19.60
2023-04-15T12:01:27.493Z,19.20
2023-04-15T12:02:27.024Z,17.50
2023-04-15T12:03:27.278Z,17.20
2023-04-15T12:04:27.014Z,15.00
2023-04-15T12:05:27.813Z,15.70
2023-04-15T12:06:27.092Z,15.80
2023-04-15T12:07:29.321Z,15.80
2023-04-15T12:08:27.261Z,16.60
2023-04-15T12:09:27.862Z,16.90
2023-04-15T12:10:28.311Z,14.70
2023-04-15T12:11:29.334Z,16.00
2023-04-15T12:12:27.032Z,14.80
2023-04-15T12:13:26.875Z,15.60
2023-04-15T12:14:26.892Z,14.70
2023-04-15T12:15:27.677Z,16.50
2023-04-15T12:16:26.917Z,14.30
2023-04-15T12:17:26.848Z,15.50
2023-04-15T12:18:27.230Z,16.70
2023-04-15T12:19:26.713Z,15.40
2023-04-15T12:20:27.664Z,14.40
2023-04-15T12:21:27.152Z,15.50
2023-04-15T12:22:27.146Z,13.70
2023-04-15T12:23:31.017Z,13.80
2023-04-15T12:24:27.670Z,13.80
2023-04-15T12:25:26.592Z,13.00
2023-04-15T12:26:26.621Z,12.80
2023-04-15T12:27:34.252Z,15.90
2023-04-15T12:28:26.588Z,13.40
2023-04-15T12:29:27.403Z,13.20
2023-04-15T12:30:26.656Z,13.50
2023-04-15T12:31:26.626Z,12.60
2023-04-15T12:32:26.538Z,13.10
2023-04-15T12:33:27.483Z,13.30
2023-04-15T12:34:27.451Z,14.50
2023-04-15T12:35:26.528Z,12.30
2023-04-15T12:36:27.715Z,12.90
2023-04-15T12:37:27.909Z,12.30
2023-04-15T12:38:27.269Z,14.10
2023-04-15T12:39:28.590Z,11.60
2023-04-15T12:40:26.770Z,11.90
2023-04-15T12:41:26.386Z,14.20
2023-04-15T12:42:26.423Z,12.30
2023-04-15T12:43:26.704Z,12.30
2023-04-15T12:44:26.358Z,12.00
2023-04-15T12:45:27.877Z,12.60
2023-04-15T12:46:27.082Z,12.00
2023-04-15T12:47:26.344Z,12.00
2023-04-15T12:48:26.599Z,12.60